createdAt,value
2023-04-30T00:01:16.898Z,12.85
2023-04-30T00:06:18.274Z,12.48
2023-04-30T00:11:19.637Z,12.65
2023-04-30T00:16:21.086Z,12.38
2023-04-30T00:21:22.463Z,13.32
2023-04-30T00:26:23.878Z,12.13
2023-04-30T00:31:25.300Z,12.38
2023-04-30T00:36:26.648Z,12.73
2023-04-30T00:41:29.136Z,13.10
2023-04-30T00:46:30.903Z,12.85
2023-04-30T00:51:33.289Z,13.57
2023-04-30T00:56:34.986Z,12.80
2023-04-30T01:01:36.601Z,13.32
2023-04-30T01:06:38.534Z,14.43
2023-04-30T01:11:55.802Z,14.65
2023-04-30T01:17:17.637Z,14.80
2023-04-30T01:22:27.864Z,15.55
2023-04-30T01:27:49.614Z,13.90
2023-04-30T01:32:51.011Z,14.52
2023-04-30T01:38:04.078Z,15.40
2023-04-30T01:43:23.330Z,14.57
2023-04-30T01:48:43.836Z,14.77
2023-04-30T01:53:46.383Z,15.60
2023-04-30T01:58:49.666Z,15.90
2023-04-30T02:03:51.032Z,15.43
2023-04-30T02:08:52.494Z,14.80
2023-04-30T02:13:53.914Z,17.13
2023-04-30T02:18:55.481Z,17.02
2023-04-30T02:23:57.294Z,16.80
2023-04-30T02:28:58.655Z,16.73
2023-04-30T02:33:59.943Z,16.63
2023-04-30T02:39:01.498Z,17.10
2023-04-30T02:44:03.162Z,16.67
2023-04-30T02:49:04.529Z,16.85
2023-04-30T02:54:05.933Z,15.57
2023-04-30T02:59:08.163Z,17.08
2023-04-30T03:04:09.532Z,17.10
2023-04-30T03:09:11.072Z,17.02
2023-04-30T03:14:12.401Z,16.13
2023-04-30T03:19:13.725Z,16.38
2023-04-30T03:24:15.014Z,17.73
2023-04-30T03:29:16.463Z,17.20
2023-04-30T03:34:17.773Z,16.35
2023-04-30T03:39:19.168Z,17.33
2023-04-30T03:44:20.973Z,18.52
2023-04-30T03:49:22.433Z,16.73
2023-04-30T03:54:23.818Z,17.10
2023-04-30T03:59:25.661Z,17.67
2023-04-30T04:04:27.207Z,17.33
2023-04-30T04:09:28.529Z,17.05
2023-04-30T04:14:29.877Z,16.83
2023-04-30T04:19:31.267Z,17.52
2023-04-30T04:24:33.385Z,18.27
2023-04-30T04:29:34.754Z,17.52
2023-04-30T04:34:36.369Z,17.83
2023-04-30T04:39:37.714Z,17.17
2023-04-30T04:44:39.443Z,17.48
2023-04-30T04:49:40.761Z,16.88
2023-04-30T04:54:42.455Z,17.80
2023-04-30T04:59:43.907Z,19.10
2023-04-30T05:04:47.174Z,17.95
2023-04-30T05:09:48.560Z,17.33
2023-04-30T05:14:51.288Z,17.30
2023-04-30T05:19:53.245Z,16.27
2023-04-30T05:24:55.882Z,16.35
2023-04-30T05:29:57.636Z,17.13
2023-04-30T05:34:59.055Z,16.00
2023-04-30T05:40:00.684Z,16.08
2023-04-30T05:45:02.834Z,15.32
2023-04-30T05:50:04.569Z,14.25
2023-04-30T05:55:06.710Z,14.70
2023-04-30T06:00:08.919Z,13.98
2023-04-30T06:05:10.619Z,12.73
2023-04-30T06:10:12.590Z,12.57
2023-04-30T06:15:14.682Z,12.63
2023-04-30T06:20:16.197Z,13.32
2023-04-30T06:25:17.623Z,11.80
2023-04-30T06:30:19.020Z,9.52
2023-04-30T06:35:20.484Z,9.75
2023-04-30T06:40:21.770Z,9.52
2023-04-30T06:45:23.294Z,8.60
2023-04-30T06:50:24.722Z,9.05
2023-04-30T06:55:27.961Z,8.18
2023-04-30T07:00:29.431Z,8.05
2023-04-30T07:05:31.384Z,8.50
2023-04-30T07:10:33.098Z,7.68
2023-04-30T07:15:34.968Z,6.57
2023-04-30T07:20:36.317Z,7.82
2023-04-30T07:25:37.697Z,6.38
2023-04-30T07:30:39.423Z,6.65
2023-04-30T07:35:42.020Z,6.65
2023-04-30T07:40:43.381Z,7.38
2023-04-30T07:45:45.118Z,6.28
2023-04-30T07:56:10.560Z,5.43
2023-04-30T08:01:11.841Z,6.22
2023-04-30T08:06:13.327Z,5.10
2023-04-30T08:11:16.022Z,6.25
2023-04-30T08:16:17.771Z,5.97
2023-04-30T08:21:19.671Z,5.10
2023-04-30T08:26:21.355Z,4.75
2023-04-30T08:31:22.847Z,4.65
2023-04-30T08:36:24.264Z,4.22
2023-04-30T08:41:27.402Z,3.58
2023-04-30T08:46:31.975Z,3.20
2023-04-30T08:51:35.013Z,3.67
2023-04-30T08:56:36.530Z,3.88
2023-04-30T09:01:38.083Z,3.20
2023-04-30T09:06:39.648Z,2.83
2023-04-30T09:11:42.208Z,2.25
2023-04-30T09:16:49.410Z,2.17
2023-04-30T09:21:50.807Z,2.50
2023-04-30T09:26:52.626Z,2.80
2023-04-30T09:32:09.817Z,2.47
2023-04-30T09:37:11.978Z,2.65
2023-04-30T09:42:13.464Z,2.58
2023-04-30T09:47:16.856Z,1.77
2023-04-30T09:52:19.210Z,1.48
2023-04-30T09:57:23.661Z,1.77
2023-04-30T10:02:26.348Z,1.90
2023-04-30T10:07:35.440Z,1.93
2023-04-30T10:12:44.799Z,1.88
2023-04-30T10:18:17.660Z,2.13
2023-04-30T10:23:19.685Z,1.57
2023-04-30T10:28:23.066Z,1.50
2023-04-30T10:33:49.570Z,1.52
2023-04-30T10:38:52.008Z,0.90
2023-04-30T10:44:02.098Z,0.93
2023-04-30T10:49:04.064Z,1.40
2023-04-30T10:54:05.521Z,0.83
2023-04-30T10:59:07.108Z,0.87
2023-04-30T11:04:11.713Z,0.40
2023-04-30T11:09:13.516Z,0.52
2023-04-30T11:14:21.287Z,0.10
2023-04-30T11:19:23.019Z,0.00
2023-04-30T11:24:50.920Z,0.10
2023-04-30T11:29:53.811Z,0.60
2023-04-30T11:34:55.923Z,0.30
2023-04-30T11:40:00.507Z,0.00
2023-04-30T11:45:13.021Z,0.60
2023-04-30T11:50:19.761Z,0.00
2023-04-30T11:55:23.548Z,0.10
2023-04-30T12:06:47.289Z,0.13
2023-04-30T12:11:49.159Z,0.20
2023-04-30T12:16:52.463Z,0.03
2023-04-30T12:21:55.027Z,0.17
2023-04-30T12:27:00.126Z,0.17
2023-04-30T12:32:01.476Z,0.38
2023-04-30T12:37:02.876Z,0.10
2023-04-30T12:42:04.343Z,0.10
2023-04-30T12:47:10.197Z,0.10
2023-04-30T12:52:14.019Z,0.20
2023-04-30T12:57:15.703Z,0.10
2023-04-30T13:02:16.985Z,0.15
2023-04-30T13:07:18.361Z,0.30
2023-04-30T13:12:20.109Z,0.20
2023-04-30T13:17:22.601Z,0.20
2023-04-30T13:22:29.346Z,0.30
2023-04-30T13:27:30.748Z,0.30
2023-04-30T13:32:32.058Z,0.20
2023-04-30T13:37:33.435Z,0.30
2023-04-30T13:42:38.225Z,0.30
2023-04-30T13:47:39.894Z,0.20
2023-04-30T13:52:41.466Z,0.10
2023-04-30T13:57:42.960Z,1.05
2023-04-30T14:02:44.565Z,0.50
2023-04-30T14:07:45.928Z,0.38
2023-04-30T14:12:48.705Z,0.30
2023-04-30T14:17:50.388Z,0.20
2023-04-30T14:22:51.710Z,0.55
2023-04-30T14:27:52.966Z,0.95
2023-04-30T14:32:54.824Z,0.70
2023-04-30T14:37:56.130Z,0.47
2023-04-30T14:42:57.465Z,0.52
2023-04-30T14:47:58.902Z,0.20
2023-04-30T14:53:00.392Z,0.13
2023-04-30T14:58:01.717Z,0.30
2023-04-30T15:03:03.331Z,0.25
2023-04-30T15:08:04.976Z,0.20
2023-04-30T15:13:06.373Z,0.25
2023-04-30T15:18:07.818Z,0.55
2023-04-30T15:23:09.270Z,0.35
2023-04-30T15:28:10.726Z,0.28
2023-04-30T15:33:12.677Z,0.60
2023-04-30T15:38:14.221Z,1.67
2023-04-30T15:43:16.403Z,0.60
2023-04-30T15:48:17.684Z,0.40
2023-04-30T15:53:19.173Z,0.40
2023-04-30T15:58:21.480Z,0.30
2023-04-30T16:03:23.093Z,0.38
2023-04-30T16:08:24.732Z,0.20
2023-04-30T16:13:26.054Z,0.43
2023-04-30T16:18:29.286Z,0.35
2023-04-30T16:23:31.921Z,0.50
2023-04-30T16:28:34.662Z,0.40
2023-04-30T16:33:36.343Z,0.60
2023-04-30T16:38:37.778Z,0.40
2023-04-30T16:43:39.119Z,0.40
2023-04-30T16:48:40.771Z,0.35
2023-04-30T16:53:44.169Z,0.80
2023-04-30T16:58:45.872Z,1.10
2023-04-30T17:03:47.456Z,0.82
2023-04-30T17:08:49.316Z,0.60
2023-04-30T17:13:50.934Z,0.70
2023-04-30T17:18:52.245Z,0.30
2023-04-30T17:23:53.857Z,0.63
2023-04-30T17:28:55.419Z,0.47
2023-04-30T17:33:57.092Z,0.80
2023-04-30T17:38:58.480Z,1.10
2023-04-30T17:43:59.938Z,0.80
2023-04-30T17:49:01.689Z,0.88
2023-04-30T17:54:03.228Z,1.00
2023-04-30T17:59:04.927Z,1.75
2023-04-30T18:04:08.388Z,1.67
2023-04-30T18:09:09.794Z,1.70
2023-04-30T18:14:11.123Z,1.20
2023-04-30T18:19:12.410Z,1.30
2023-04-30T18:24:13.762Z,1.00
2023-04-30T18:29:16.267Z,1.35
2023-04-30T18:39:22.017Z,1.00
2023-04-30T18:44:34.756Z,1.33
2023-04-30T18:49:36.257Z,1.63
2023-04-30T18:54:37.728Z,2.55
2023-04-30T18:59:39.606Z,2.28
2023-04-30T19:04:40.991Z,1.30
2023-04-30T19:09:45.110Z,1.40
2023-04-30T19:14:47.094Z,1.48
2023-04-30T19:19:49.919Z,0.90
2023-04-30T19:24:52.501Z,1.40
2023-04-30T19:29:54.395Z,1.45
2023-04-30T19:34:56.135Z,1.23
2023-04-30T19:39:57.709Z,1.40
2023-04-30T19:44:59.492Z,1.38
2023-04-30T19:50:00.859Z,0.90
2023-04-30T19:55:02.261Z,1.35
2023-04-30T20:00:04.315Z,0.85
2023-04-30T20:05:07.222Z,1.23
2023-04-30T20:10:09.877Z,1.20
2023-04-30T20:15:11.224Z,0.73
2023-04-30T20:20:13.296Z,1.10
2023-04-30T20:25:15.312Z,0.93
2023-04-30T20:30:17.199Z,1.20
2023-04-30T20:35:19.105Z,1.13
2023-04-30T20:40:20.716Z,1.38
2023-04-30T20:45:23.054Z,1.27
2023-04-30T20:50:24.507Z,1.92
2023-04-30T20:55:26.773Z,1.80
2023-04-30T21:00:28.258Z,1.17
2023-04-30T21:05:30.073Z,1.42
2023-04-30T21:10:36.185Z,1.50
2023-04-30T21:15:39.889Z,1.30
2023-04-30T21:20:41.280Z,1.00
2023-04-30T21:25:42.650Z,0.90
2023-04-30T21:30:44.623Z,1.15
2023-04-30T21:35:45.975Z,1.48
2023-04-30T21:40:47.335Z,1.60
2023-04-30T21:45:48.864Z,1.33
2023-04-30T21:50:50.190Z,1.50
2023-04-30T21:55:51.871Z,1.40
2023-04-30T22:00:54.713Z,1.27
2023-04-30T22:05:57.081Z,1.60
2023-04-30T22:10:59.657Z,1.90
2023-04-30T22:16:01.131Z,1.58
2023-04-30T22:21:02.752Z,1.85
2023-04-30T22:26:09.500Z,1.92
2023-04-30T22:31:11.168Z,1.70
2023-04-30T22:36:12.498Z,2.25
2023-04-30T22:41:14.038Z,1.30
2023-04-30T22:46:15.720Z,1.73
2023-04-30T22:51:18.028Z,2.20
2023-04-30T22:56:19.466Z,1.30
2023-04-30T23:01:21.474Z,1.17
2023-04-30T23:06:23.386Z,1.80
2023-04-30T23:11:24.886Z,1.90
2023-04-30T23:16:27.038Z,1.73
2023-04-30T23:21:28.476Z,1.30
2023-04-30T23:26:30.261Z,1.27
2023-04-30T23:31:31.768Z,1.50
2023-04-30T23:36:33.173Z,1.52
2023-04-30T23:41:34.538Z,1.27
2023-04-30T23:46:36.191Z,1.40
2023-04-30T23:51:38.531Z,1.67
2023-04-30T23:56:39.858Z,1.60
